Flight Track Log - Related Links

Times and Time Zones

All times are in EDT time to prevent confusion due to time zone crossing. See the KAP927 flight status page for this flight to view local times or setup timezone preferences in your user account.

Time Position Orientation Groundspeed Altitude Reporting Facility
EDT Latitude Longitude Course Direction KTS MPH feet Rate Location/Type
Fri 02:00:31 PM 42.3667 -71.0167 246° West 105 121 500  Level KA90
Fri 02:01:37 PM 42.3500 -71.0667 246° West 111 128 1,400 756 Climbing KA90
Fri 02:02:38 PM 42.3500 -71.1000 270° West 111 128 2,100 672 Climbing KA90
Fri 02:03:51 PM 42.3500 -71.1500 270° West 113 130 2,900 629 Climbing KA90
Fri 02:04:42 PM 42.3500 -71.2000 270° West 113 130 3,400 589 Climbing KA90
Fri 02:05:43 PM 42.3333 -71.2333 236° Southwest 119 137 4,000 550 Climbing KA90
Fri 02:06:42 PM 42.3333 -71.2833 270° West 124 143 4,500 496 Climbing KA90
Fri 02:07:44 PM 42.3333 -71.3333 270° West 125 144 5,000 450 Climbing KA90
Fri 02:08:42 PM 42.3167 -71.3833 246° West 130 150 5,400 446 Climbing KA90
Fri 02:09:45 PM 42.3167 -71.4333 270° West 129 148 5,900 488 Climbing KA90
Fri 02:10:45 PM 42.3167 -71.4667 270° West 128 147 6,400 504 Climbing KA90
Fri 02:11:44 PM 42.3000 -71.5167 246° West 128 147 6,900 593 Climbing KA90
Fri 02:12:16 PM 42.2989 -71.5531 268° West 128 147 7,300 452 Climbing Boston Center
Fri 02:13:17 PM 42.2911 -71.6036 258° West 137 158 7,600 313 Climbing Boston Center
Fri 02:14:11 PM 42.2872 -71.6514 264° West 136 157 7,900 261 Climbing Boston Center
Fri 02:15:12 PM 42.2814 -71.7047 262° West 146 168 8,100 98 Climbing Boston Center
Fri 02:16:13 PM 42.2733 -71.7667 260° West 161 185 8,100 -49 Level Boston Center
Fri 02:17:14 PM 42.2653 -71.8258 260° West 164 189 8,000 -49 Descending Boston Center
Fri 02:18:15 PM 42.2697 -71.8903 275° West 167 192 8,000 52 Level Boston Center
Fri 02:19:09 PM 42.2742 -71.9464 276° West 165 190 8,100 50 Climbing Boston Center
Fri 02:20:16 PM 42.2744 -72.0136 270° West 164 189 8,100  Level Boston Center
Fri 02:21:17 PM 42.2769 -72.0697 273° West 154 177 8,100  Level Boston Center
Fri 02:22:17 PM 42.2769 -72.1314 270° West 154 177 8,100  Level Boston Center
Fri 02:23:24 PM 42.2772 -72.1961 270° West 152 175 8,100  Level Boston Center
Fri 02:24:25 PM 42.2794 -72.2522 273° West 153 176 8,100  Level Boston Center
Fri 02:25:14 PM 42.2794 -72.2942 270° West 148 170 8,100  Level Boston Center
Fri 02:26:21 PM 42.2794 -72.3558 270° West 146 168 8,100  Level Boston Center
Fri 02:27:22 PM 42.2942 -72.4092 290° West 159 183 8,100  Level Boston Center
Fri 02:28:28 PM 42.3192 -72.4681 300° West 159 183 8,100  Level Boston Center
Fri 02:29:23 PM 42.3336 -72.5186 291° West 156 180 8,100  Level Boston Center
Fri 02:30:36 PM 42.3544 -72.5833 294° West 155 178 8,100  Level Boston Center
Fri 02:31:37 PM 42.3711 -72.6369 293° West 157 181 8,100 -50 Level Boston Center
Fri 02:32:37 PM 42.3917 -72.6931 296° West 159 183 8,000 -50 Descending Boston Center
Fri 02:33:38 PM 42.4103 -72.7467 295° West 159 183 8,000 57 Level Boston Center
Fri 02:34:22 PM 42.4228 -72.7861 293° West 158 182 8,100 57 Climbing Boston Center
Fri 02:35:23 PM 42.4414 -72.8425 294° West 157 181 8,100  Level Boston Center
Fri 02:36:24 PM 42.4600 -72.8989 294° West 157 181 8,100  Level Boston Center
Fri 02:37:24 PM 42.4742 -72.9553 289° West 158 182 8,100  Level Boston Center
Fri 02:38:25 PM 42.4969 -73.0089 300° West 161 185 8,100  Level Boston Center
Fri 02:39:26 PM 42.5111 -73.0625 290° West 162 186 8,100  Level Boston Center
Fri 02:40:26 PM 42.5317 -73.1192 296° West 167 192 8,100  Level Boston Center
Fri 02:41:27 PM 42.5500 -73.1786 293° West 164 189 8,100 -248 Level Boston Center
Fri 02:42:27 PM 42.5519 -73.2406 272° West 178 205 7,600 -545 Descending Boston Center
Fri 02:43:28 PM 42.5511 -73.3167 269° West 185 213 7,000 -639 Descending Boston Center
Fri 02:44:29 PM 42.5506 -73.3869 269° West 189 217 6,300 -645 Descending Boston Center
Fri 02:45:29 PM 42.5522 -73.4603 272° West 191 220 5,700 -446 Descending Boston Center
Fri 02:46:30 PM 42.5514 -73.5281 269° West 185 213 5,400 -344 Descending Boston Center
Fri 02:47:31 PM 42.5531 -73.5928 272° West 169 194 5,000 -545 Descending Boston Center
Fri 02:48:31 PM 42.5564 -73.6578 274° West 173 199 4,300 -694 Descending Boston Center
Fri 02:49:32 PM 42.5578 -73.7225 272° West 177 204 3,600 -545 Descending Boston Center
Fri 02:50:32 PM 42.5717 -73.7792 288° West 166 191 3,200 -496 Descending Boston Center
Fri 02:51:33 PM 42.6111 -73.8000 339° North 162 186 2,600 -541 Descending Boston Center
Fri 02:52:34 PM 42.6547 -73.8036 357° North 140 161 2,100 -645 Descending Boston Center
Fri 02:53:34 PM 42.6903 -73.8044 359° North 130 150 1,300 -694 Descending Boston Center
Fri 02:54:35 PM 42.7214 -73.8078 355° North 99 114 700 -590 Descending Boston Center
Fri 02:56:00 PM 42.7333 -73.8000 342° North  Level FlightAware Approximate
Fri 03:03:00 PM 42.7491 -73.8020 342° North  Level Estimated
Fri 03:04:00 PM 42.7491 -73.8020 342° North  Level Estimated
Fri 03:05:00 PM 42.7491 -73.8020 342° North  Level Estimated

Login

Don't have an account? Register now (free) for customized features, flight alerts, and more!